createdAt,value
2017-04-26T07:31:54.206Z,22.61
2017-04-26T07:32:26.513Z,22.6
2017-04-26T07:33:01.334Z,22.45
2017-04-26T07:33:33.586Z,22.66
2017-04-26T07:34:05.841Z,22.59
2017-04-26T07:34:38.899Z,22.54
2017-04-26T07:35:11.171Z,22.63
2017-04-26T07:35:44.292Z,22.63
2017-04-26T07:36:16.559Z,22.59
2017-04-26T07:36:48.812Z,22.63
2017-04-26T07:37:21.047Z,22.66
2017-04-26T07:37:53.309Z,22.7
2017-04-26T07:38:25.558Z,22.75
2017-04-26T07:38:58.671Z,22.73
2017-04-26T07:39:31.788Z,22.67
2017-04-26T07:40:04.061Z,22.69
2017-04-26T07:40:36.451Z,22.71
2017-04-26T07:41:08.705Z,22.76
2017-04-26T07:41:40.980Z,22.66
2017-04-26T07:42:13.249Z,22.75
2017-04-26T07:42:45.564Z,22.73
2017-04-26T07:43:17.902Z,22.78
2017-04-26T07:43:50.216Z,22.69
2017-04-26T07:44:22.523Z,22.76
2017-04-26T07:44:54.827Z,22.82
2017-04-26T07:45:27.132Z,22.84
2017-04-26T07:45:59.434Z,22.81
2017-04-26T07:46:31.756Z,22.88
2017-04-26T07:47:04.082Z,22.85
2017-04-26T07:47:36.386Z,22.88
2017-04-26T07:48:08.689Z,22.86
2017-04-26T07:48:40.994Z,22.86
2017-04-26T07:49:13.316Z,22.76
2017-04-26T07:49:45.630Z,22.82
2017-04-26T07:50:17.957Z,22.82
2017-04-26T07:50:50.274Z,22.85
2017-04-26T07:51:22.591Z,22.81
2017-04-26T07:51:54.926Z,22.85
2017-04-26T07:52:27.246Z,22.75
2017-04-26T07:52:59.532Z,22.84
2017-04-26T07:53:31.846Z,22.84
2017-04-26T07:54:04.110Z,22.78
2017-04-26T07:54:36.438Z,22.78
2017-04-26T07:55:08.713Z,22.69
2017-04-26T07:55:40.953Z,22.75
2017-04-26T07:56:13.191Z,22.73
2017-04-26T07:56:46.172Z,22.73
2017-04-26T07:57:18.420Z,22.7
2017-04-26T07:57:50.668Z,22.69
2017-04-26T07:58:22.926Z,22.67
2017-04-26T07:58:55.797Z,22.67
2017-04-26T07:59:28.059Z,22.69
2017-04-26T08:00:00.318Z,22.57
2017-04-26T08:00:32.569Z,22.66
2017-04-26T08:01:04.830Z,22.61
2017-04-26T08:01:37.078Z,22.67
2017-04-26T08:02:09.866Z,22.59
2017-04-26T08:02:42.171Z,22.63
2017-04-26T08:03:14.483Z,22.61
2017-04-26T08:03:46.785Z,22.64
2017-04-26T08:04:19.090Z,22.63
2017-04-26T08:04:51.406Z,22.61
2017-04-26T08:05:23.699Z,22.59
2017-04-26T08:05:55.996Z,22.59
2017-04-26T08:06:28.291Z,22.63
2017-04-26T08:07:00.596Z,22.66
2017-04-26T08:07:32.904Z,22.64
2017-04-26T08:08:05.208Z,22.61
2017-04-26T08:08:37.588Z,22.54
2017-04-26T08:09:09.883Z,22.52
2017-04-26T08:09:42.209Z,22.63
2017-04-26T08:10:14.508Z,22.57
2017-04-26T08:10:46.816Z,22.6
2017-04-26T08:11:19.119Z,22.46
2017-04-26T08:11:51.433Z,22.45
2017-04-26T08:12:23.740Z,22.48
2017-04-26T08:12:56.047Z,22.45
2017-04-26T08:13:28.355Z,22.42
2017-04-26T08:14:00.700Z,22.48
2017-04-26T08:14:33.003Z,22.44
2017-04-26T08:15:05.316Z,22.49
2017-04-26T08:15:37.643Z,22.42
2017-04-26T08:16:09.949Z,22.44
2017-04-26T08:16:42.316Z,22.31
2017-04-26T08:17:14.664Z,22.38
2017-04-26T08:17:46.985Z,22.33
2017-04-26T08:18:19.313Z,22.44
2017-04-26T08:18:51.628Z,22.33
2017-04-26T08:19:23.979Z,22.36
2017-04-26T08:19:56.289Z,22.34
2017-04-26T08:20:28.885Z,22.33
2017-04-26T08:21:01.205Z,22.24
2017-04-26T08:21:33.522Z,22.34
2017-04-26T08:22:05.828Z,22.27
2017-04-26T08:22:38.149Z,22.29
2017-04-26T08:23:10.505Z,22.26
2017-04-26T08:23:42.811Z,22.2
2017-04-26T08:24:15.163Z,22.3
2017-04-26T08:24:47.482Z,22.26
2017-04-26T08:25:19.791Z,22.22
2017-04-26T08:25:52.123Z,22.18
2017-04-26T08:26:24.460Z,22.14
2017-04-26T08:26:56.783Z,22.27
2017-04-26T08:27:29.088Z,22.27
2017-04-26T08:28:01.392Z,22.23
2017-04-26T08:28:33.712Z,22.15
2017-04-26T08:29:06.049Z,22.07
2017-04-26T08:29:38.350Z,22.11
2017-04-26T08:30:10.647Z,22.12
2017-04-26T08:30:42.949Z,22.07
2017-04-26T08:31:14.974Z,22.08
2017-04-26T08:31:47.276Z,22.07
2017-04-26T08:32:19.609Z,22.05
2017-04-26T08:32:51.866Z,21.99
2017-04-26T08:33:24.938Z,21.97
2017-04-26T08:33:57.310Z,21.99
2017-04-26T08:34:29.550Z,21.99
2017-04-26T08:35:01.842Z,21.94
2017-04-26T08:35:34.871Z,21.93
2017-04-26T08:36:07.761Z,21.92
2017-04-26T08:36:40.025Z,21.9
2017-04-26T08:37:12.416Z,21.86
2017-04-26T08:37:44.731Z,21.82
2017-04-26T08:38:17.006Z,21.86
2017-04-26T08:38:49.301Z,21.74
2017-04-26T08:39:22.324Z,21.86
2017-04-26T08:39:54.594Z,21.85
2017-04-26T08:40:26.878Z,21.82
2017-04-26T08:40:59.668Z,21.77
2017-04-26T08:41:32.039Z,21.82
2017-04-26T08:42:04.303Z,21.85
2017-04-26T08:42:36.572Z,21.83
2017-04-26T08:43:08.843Z,21.76
2017-04-26T08:43:41.074Z,21.82
2017-04-26T08:44:13.424Z,21.86
2017-04-26T08:44:45.678Z,21.82
2017-04-26T08:45:17.934Z,21.76
2017-04-26T08:45:50.175Z,21.78
2017-04-26T08:46:22.449Z,21.85
2017-04-26T08:46:54.710Z,21.86
2017-04-26T08:47:28.427Z,21.83
2017-04-26T08:48:01.318Z,21.89
2017-04-26T08:48:33.591Z,21.93
2017-04-26T08:49:05.980Z,21.92
2017-04-26T08:49:38.225Z,21.93
2017-04-26T08:50:10.497Z,21.94
2017-04-26T08:50:43.765Z,21.94
2017-04-26T08:51:16.940Z,21.96
2017-04-26T08:51:49.208Z,22
2017-04-26T08:52:21.455Z,21.94
2017-04-26T08:52:53.764Z,21.99
2017-04-26T08:53:26.072Z,21.9
2017-04-26T08:53:58.380Z,21.94
2017-04-26T08:54:30.683Z,21.99
2017-04-26T08:55:02.995Z,21.96
2017-04-26T08:55:35.297Z,21.9
2017-04-26T08:56:07.617Z,21.9
2017-04-26T08:56:39.911Z,21.99
2017-04-26T08:57:12.272Z,22.02
2017-04-26T08:57:44.609Z,21.9
2017-04-26T08:58:16.923Z,22.04
2017-04-26T08:58:49.264Z,21.97
2017-04-26T08:59:21.595Z,21.92
2017-04-26T08:59:53.921Z,21.99
2017-04-26T09:00:26.298Z,21.92
2017-04-26T09:00:58.606Z,21.96
2017-04-26T09:01:30.957Z,21.89
2017-04-26T09:02:03.272Z,22
2017-04-26T09:02:35.564Z,21.97
2017-04-26T09:03:07.882Z,21.93
2017-04-26T09:03:40.201Z,21.96
2017-04-26T09:04:12.516Z,21.96
2017-04-26T09:04:44.804Z,21.94
2017-04-26T09:05:17.121Z,21.94
2017-04-26T09:05:49.685Z,21.94
2017-04-26T09:07:41.527Z,21.94
2017-04-26T09:08:13.837Z,21.92
2017-04-26T09:08:46.147Z,21.93
2017-04-26T09:09:18.493Z,21.94
2017-04-26T09:09:50.813Z,21.92
2017-04-26T09:10:23.122Z,21.92
2017-04-26T09:10:55.423Z,21.96
2017-04-26T09:11:27.714Z,21.97
2017-04-26T09:12:00.005Z,21.9
2017-04-26T09:12:32.345Z,21.89
2017-04-26T09:13:04.652Z,21.94
2017-04-26T09:13:36.953Z,21.92
2017-04-26T09:14:09.292Z,21.93
2017-04-26T09:14:41.595Z,22
2017-04-26T09:15:13.902Z,21.93
2017-04-26T09:15:46.251Z,21.96
2017-04-26T09:16:18.581Z,21.99
2017-04-26T09:16:50.978Z,21.96
2017-04-26T09:17:23.297Z,21.97
2017-04-26T09:17:55.597Z,22.02
2017-04-26T09:18:27.959Z,22.08
2017-04-26T09:19:00.267Z,21.99
2017-04-26T09:19:32.573Z,22.08
2017-04-26T09:20:04.906Z,22.08
2017-04-26T09:20:37.217Z,22.02
2017-04-26T09:21:09.536Z,22.07
2017-04-26T09:21:41.838Z,22.02
2017-04-26T09:22:14.656Z,22.07
2017-04-26T09:24:07.991Z,21.97
2017-04-26T09:24:40.279Z,21.97
2017-04-26T09:25:12.568Z,21.93
2017-04-26T09:25:46.406Z,21.9
2017-04-26T09:26:18.722Z,21.9
2017-04-26T09:26:51.037Z,21.83
2017-04-26T09:27:23.360Z,21.89
2017-04-26T09:27:55.678Z,21.89
2017-04-26T09:28:28.000Z,21.85
2017-04-26T09:29:00.301Z,21.89
2017-04-26T09:29:32.610Z,21.82
2017-04-26T09:30:04.916Z,21.89
2017-04-26T09:30:37.242Z,21.8
2017-04-26T09:31:09.552Z,21.82
2017-04-26T09:31:41.853Z,21.82
2017-04-26T09:32:14.153Z,21.82
2017-04-26T09:32:46.426Z,21.82
2017-04-26T09:33:18.683Z,21.76
2017-04-26T09:33:51.847Z,21.76
2017-04-26T09:34:24.091Z,21.73
2017-04-26T09:34:56.341Z,21.67
2017-04-26T09:35:28.614Z,21.76
2017-04-26T09:36:00.854Z,21.7
2017-04-26T09:36:33.786Z,21.66
2017-04-26T09:37:06.047Z,21.66
2017-04-26T09:37:38.297Z,21.59
2017-04-26T09:38:10.537Z,21.66
2017-04-26T09:38:43.349Z,21.66
2017-04-26T09:39:15.629Z,21.67
2017-04-26T09:39:47.985Z,21.67
2017-04-26T09:40:20.238Z,21.61
2017-04-26T09:40:52.508Z,21.61
2017-04-26T09:41:24.756Z,21.56
2017-04-26T09:41:57.010Z,21.62
2017-04-26T09:42:29.271Z,21.51
2017-04-26T09:43:01.626Z,21.49
2017-04-26T09:43:33.879Z,21.53
2017-04-26T09:44:06.838Z,21.53
2017-04-26T09:44:39.083Z,21.55
2017-04-26T09:45:12.423Z,21.52
2017-04-26T09:45:44.675Z,21.59
2017-04-26T09:46:16.939Z,21.61
2017-04-26T09:46:49.194Z,21.53
2017-04-26T09:47:21.451Z,21.56
2017-04-26T09:47:53.700Z,21.51
2017-04-26T09:48:25.945Z,21.52
2017-04-26T09:48:58.193Z,21.55
2017-04-26T09:49:30.475Z,21.56
2017-04-26T09:50:02.725Z,21.48
2017-04-26T09:50:35.816Z,21.66
2017-04-26T09:51:08.074Z,21.53
2017-04-26T09:51:40.322Z,21.55
2017-04-26T09:52:12.575Z,21.51
2017-04-26T09:52:44.884Z,21.55
2017-04-26T09:53:17.191Z,21.61
2017-04-26T09:53:49.492Z,21.55
2017-04-26T09:54:21.791Z,21.58
2017-04-26T09:54:54.105Z,21.62
2017-04-26T09:55:26.410Z,21.61
2017-04-26T09:55:58.706Z,21.55
2017-04-26T09:56:31.028Z,21.61
2017-04-26T09:57:03.332Z,21.52
2017-04-26T09:57:35.637Z,21.53
2017-04-26T09:58:07.936Z,21.58
2017-04-26T09:58:40.271Z,21.58
2017-04-26T09:59:12.587Z,21.53
2017-04-26T09:59:44.890Z,21.48
2017-04-26T10:00:17.204Z,21.61
2017-04-26T10:00:49.510Z,21.62
2017-04-26T10:01:21.816Z,21.59
2017-04-26T10:01:54.117Z,21.56
2017-04-26T10:02:26.435Z,21.53
2017-04-26T10:02:59.322Z,21.55
2017-04-26T10:03:31.583Z,21.58
2017-04-26T10:04:03.852Z,21.55
2017-04-26T10:04:36.112Z,21.52
2017-04-26T10:05:09.363Z,21.51
2017-04-26T10:05:42.397Z,21.48
2017-04-26T10:06:14.652Z,21.52
2017-04-26T10:06:47.875Z,21.61
2017-04-26T10:07:20.145Z,21.55
2017-04-26T10:07:52.418Z,21.53
2017-04-26T10:08:25.434Z,21.53
2017-04-26T10:08:59.430Z,21.61
2017-04-26T10:09:31.706Z,21.58
2017-04-26T10:10:04.845Z,21.59
2017-04-26T10:10:37.962Z,21.53
2017-04-26T10:11:10.859Z,21.52
2017-04-26T10:11:43.148Z,21.46
2017-04-26T10:12:15.439Z,21.58
2017-04-26T10:12:48.833Z,21.49
2017-04-26T10:13:22.412Z,21.56
2017-04-26T10:13:55.487Z,21.46
2017-04-26T10:15:43.809Z,21.45
2017-04-26T10:16:16.822Z,21.52
2017-04-26T10:16:50.497Z,21.49
2017-04-26T10:17:22.760Z,21.53
2017-04-26T10:17:55.943Z,21.58
2017-04-26T10:18:31.449Z,21.45
2017-04-26T10:19:06.899Z,21.58
2017-04-26T10:19:39.169Z,21.49
2017-04-26T10:20:11.432Z,21.48
2017-04-26T10:20:44.264Z,21.49
2017-04-26T10:21:16.524Z,21.55
2017-04-26T10:21:48.794Z,21.56
2017-04-26T10:22:21.057Z,21.51
2017-04-26T10:22:53.353Z,21.52
2017-04-26T10:23:25.664Z,21.59
2017-04-26T10:23:57.969Z,21.53
2017-04-26T10:24:30.449Z,21.52
2017-04-26T10:25:02.753Z,21.53
2017-04-26T10:25:35.051Z,21.49
2017-04-26T10:26:07.366Z,21.58
2017-04-26T10:26:39.685Z,21.53
2017-04-26T10:27:12.001Z,21.55
2017-04-26T10:27:44.394Z,21.55
2017-04-26T10:28:46.756Z,21.58
2017-04-26T10:29:34.379Z,21.53
2017-04-26T10:30:06.699Z,21.59
2017-04-26T10:30:39.005Z,21.61
2017-04-26T10:31:34.999Z,21.52
2017-04-26T10:32:07.306Z,21.55
2017-04-26T10:32:40.291Z,21.59
2017-04-26T10:33:12.557Z,21.52
2017-04-26T10:33:44.804Z,21.62
2017-04-26T10:34:17.035Z,21.59
2017-04-26T10:34:49.274Z,21.59
2017-04-26T10:35:21.519Z,21.64
2017-04-26T10:35:53.770Z,21.61
2017-04-26T10:36:26.899Z,21.67
2017-04-26T10:36:59.948Z,21.61
2017-04-26T10:37:32.809Z,21.59
2017-04-26T10:38:05.935Z,21.64
2017-04-26T10:38:39.479Z,21.61
2017-04-26T10:39:12.357Z,21.61
2017-04-26T10:39:44.589Z,21.64
2017-04-26T10:40:17.989Z,21.66
2017-04-26T10:40:50.295Z,21.62
2017-04-26T10:41:22.571Z,21.58
2017-04-26T10:41:54.848Z,21.61
2017-04-26T10:42:27.126Z,21.66
2017-04-26T10:42:59.451Z,21.66
2017-04-26T10:43:31.780Z,21.66
2017-04-26T10:44:04.109Z,21.66
2017-04-26T10:44:36.419Z,21.74
2017-04-26T10:45:08.733Z,21.66
2017-04-26T10:45:41.077Z,21.73
2017-04-26T10:46:13.379Z,21.77
2017-04-26T10:46:45.703Z,21.68
2017-04-26T10:47:18.000Z,21.74
2017-04-26T10:49:11.185Z,21.83
2017-04-26T10:49:48.575Z,21.78
2017-04-26T10:50:21.591Z,21.89
2017-04-26T10:50:53.915Z,21.92
2017-04-26T10:51:26.242Z,21.96
2017-04-26T10:51:58.647Z,21.99
2017-04-26T10:52:30.959Z,22.07
2017-04-26T10:53:03.807Z,22.07
2017-04-26T10:53:36.183Z,22.11
2017-04-26T10:54:09.057Z,22.08
2017-04-26T10:54:41.345Z,22.24
2017-04-26T10:55:13.630Z,22.29
2017-04-26T10:55:45.925Z,22.29
2017-04-26T10:56:19.001Z,22.26
2017-04-26T10:56:51.245Z,22.33
2017-04-26T10:57:23.513Z,22.33
2017-04-26T10:57:55.889Z,22.41
2017-04-26T10:58:28.130Z,22.39
2017-04-26T10:59:00.420Z,22.42
2017-04-26T10:59:33.561Z,22.38
2017-04-26T11:00:06.790Z,22.38
2017-04-26T11:00:39.969Z,22.42
2017-04-26T11:01:14.469Z,22.45
2017-04-26T11:01:46.750Z,22.44
2017-04-26T11:02:19.962Z,22.44
2017-04-26T11:02:53.490Z,22.46
2017-04-26T11:03:26.945Z,22.51
2017-04-26T11:03:59.940Z,22.44
2017-04-26T11:04:32.910Z,22.46
2017-04-26T11:05:05.964Z,22.45
2017-04-26T11:05:38.255Z,22.46
2017-04-26T11:06:10.509Z,22.49
2017-04-26T11:06:42.778Z,22.46
2017-04-26T11:07:15.909Z,22.55
2017-04-26T11:07:48.162Z,22.6
2017-04-26T11:08:20.946Z,22.61
2017-04-26T11:08:53.211Z,22.6
2017-04-26T11:09:25.462Z,22.69
2017-04-26T11:09:57.732Z,22.71
2017-04-26T11:10:30.034Z,22.82
2017-04-26T11:11:02.385Z,22.82
2017-04-26T11:11:34.699Z,22.81
2017-04-26T11:12:07.012Z,22.92
2017-04-26T11:12:39.318Z,23.03
2017-04-26T11:13:11.624Z,22.99
2017-04-26T11:13:43.973Z,22.99
2017-04-26T11:14:16.286Z,23.12
2017-04-26T11:14:48.593Z,23.21
2017-04-26T11:15:20.898Z,23.26
2017-04-26T11:15:53.190Z,23.4
2017-04-26T11:16:25.489Z,23.42
2017-04-26T11:16:57.821Z,23.45
2017-04-26T11:17:30.148Z,23.5
2017-04-26T11:18:02.450Z,23.64
2017-04-26T11:18:34.750Z,23.7
2017-04-26T11:19:07.058Z,23.79
2017-04-26T11:19:39.367Z,23.94
2017-04-26T11:20:11.667Z,23.9
2017-04-26T11:20:43.979Z,23.99
2017-04-26T11:21:16.288Z,24.07
2017-04-26T11:21:48.593Z,24.19
2017-04-26T11:22:21.929Z,24.24
2017-04-26T11:22:58.124Z,24.29
2017-04-26T11:23:30.436Z,24.33
2017-04-26T11:24:02.747Z,24.42
2017-04-26T11:24:35.054Z,24.56
2017-04-26T11:25:07.353Z,24.63
2017-04-26T11:25:39.652Z,24.59
2017-04-26T11:26:11.957Z,24.66
2017-04-26T11:26:44.278Z,24.82
2017-04-26T11:27:16.585Z,24.83
2017-04-26T11:27:48.908Z,24.87
2017-04-26T11:28:21.251Z,24.92
2017-04-26T11:28:53.558Z,24.89
2017-04-26T11:29:25.859Z,24.97
2017-04-26T11:29:58.176Z,25
2017-04-26T11:30:30.484Z,24.92
2017-04-26T11:31:02.792Z,24.97
2017-04-26T11:31:35.105Z,24.97
2017-04-26T11:32:07.409Z,24.94
2017-04-26T11:32:39.661Z,24.93
2017-04-26T11:33:12.487Z,24.92
2017-04-26T11:33:44.748Z,24.83
2017-04-26T11:34:17.079Z,24.89
2017-04-26T11:34:49.335Z,24.74
2017-04-26T11:35:21.642Z,24.7
2017-04-26T11:35:54.514Z,24.75
2017-04-26T11:36:26.768Z,24.77
2017-04-26T11:36:59.014Z,24.8
2017-04-26T11:37:31.267Z,24.69
2017-04-26T11:38:04.489Z,24.71
2017-04-26T11:38:36.753Z,24.71
2017-04-26T11:39:09.038Z,24.71
2017-04-26T11:39:41.320Z,24.67
2017-04-26T11:40:13.566Z,24.58
2017-04-26T11:40:45.812Z,24.54
2017-04-26T11:41:18.056Z,24.55
2017-04-26T11:41:50.312Z,24.46
2017-04-26T11:42:22.564Z,24.42
2017-04-26T11:42:54.903Z,24.42
2017-04-26T11:43:27.249Z,24.4
2017-04-26T11:43:59.558Z,24.44
2017-04-26T11:44:31.907Z,24.34
2017-04-26T11:45:04.224Z,24.37
2017-04-26T11:45:36.543Z,24.36
2017-04-26T11:46:08.866Z,24.26
2017-04-26T11:46:41.199Z,24.26
2017-04-26T11:47:13.514Z,24.24
2017-04-26T11:47:45.817Z,24.26
2017-04-26T11:48:18.120Z,24.22
2017-04-26T11:48:50.413Z,24.21
2017-04-26T11:49:22.726Z,24.17
2017-04-26T11:49:55.065Z,24.11
2017-04-26T11:50:27.379Z,24.09
2017-04-26T11:50:59.699Z,24.11
2017-04-26T11:51:32.002Z,23.96
2017-04-26T11:52:04.315Z,24.02
2017-04-26T11:52:36.632Z,23.92
2017-04-26T11:53:08.946Z,23.93
2017-04-26T11:53:41.257Z,23.93
2017-04-26T11:54:13.561Z,23.81
2017-04-26T11:54:45.899Z,23.84
2017-04-26T11:55:18.198Z,23.78
2017-04-26T11:55:50.499Z,23.74
2017-04-26T11:56:22.809Z,23.71
2017-04-26T11:56:55.103Z,23.67
2017-04-26T11:57:27.402Z,23.57
2017-04-26T11:57:59.713Z,23.57
2017-04-26T11:58:32.029Z,23.52
2017-04-26T11:59:04.337Z,23.57
2017-04-26T11:59:36.663Z,23.56
2017-04-26T12:00:08.964Z,23.47
2017-04-26T12:00:41.286Z,23.4
2017-04-26T12:01:13.606Z,23.47
2017-04-26T12:01:45.902Z,23.37
2017-04-26T12:02:18.202Z,23.41
2017-04-26T12:02:50.505Z,23.4
2017-04-26T12:03:22.813Z,23.38
2017-04-26T12:03:55.112Z,23.28
2017-04-26T12:04:27.412Z,23.37
2017-04-26T12:04:59.736Z,23.37
2017-04-26T12:05:32.042Z,23.4
2017-04-26T12:06:04.354Z,23.26
2017-04-26T12:06:36.675Z,23.41
2017-04-26T12:07:08.981Z,23.38
2017-04-26T12:07:41.286Z,23.37
2017-04-26T12:08:13.647Z,23.44
2017-04-26T12:08:45.955Z,23.41
2017-04-26T12:09:18.258Z,23.41
2017-04-26T12:09:50.578Z,23.34
2017-04-26T12:10:22.892Z,23.42
2017-04-26T12:10:55.200Z,23.45
2017-04-26T12:11:27.522Z,23.45
2017-04-26T12:11:59.826Z,23.59
2017-04-26T12:12:32.140Z,23.63
2017-04-26T12:13:04.442Z,23.72
2017-04-26T12:13:36.735Z,23.87
2017-04-26T12:14:09.055Z,23.78
2017-04-26T12:14:41.352Z,23.79
2017-04-26T12:15:13.673Z,23.87
2017-04-26T12:15:45.966Z,23.9
2017-04-26T12:16:18.274Z,24.14
2017-04-26T12:16:50.574Z,24.22
2017-04-26T12:17:22.865Z,24.15
2017-04-26T12:17:55.174Z,24.19
2017-04-26T12:18:27.478Z,24.24
2017-04-26T12:18:59.784Z,24.21
2017-04-26T12:19:32.092Z,24.26
2017-04-26T12:20:04.426Z,24.32
2017-04-26T12:20:36.747Z,24.3
2017-04-26T12:21:09.042Z,24.4
2017-04-26T12:21:41.369Z,24.48
2017-04-26T12:22:13.692Z,24.58
2017-04-26T12:22:45.965Z,24.58
2017-04-26T12:23:18.218Z,24.74
2017-04-26T12:23:51.424Z,24.77
2017-04-26T12:24:24.556Z,24.82
2017-04-26T12:24:56.808Z,24.85
2017-04-26T12:25:29.071Z,24.8
2017-04-26T12:26:01.523Z,24.77
2017-04-26T12:26:33.796Z,24.75
2017-04-26T12:27:06.056Z,24.8
2017-04-26T12:27:39.012Z,24.7
2017-04-26T12:28:11.306Z,24.71
2017-04-26T12:28:43.566Z,24.77
2017-04-26T12:29:15.875Z,24.74
2017-04-26T12:29:50.142Z,24.8
2017-04-26T12:30:25.374Z,24.78
2017-04-26T12:31:02.728Z,24.8
2017-04-26T12:31:39.902Z,24.78
2017-04-26T12:32:16.629Z,24.8
2017-04-26T12:32:54.827Z,24.75
2017-04-26T12:34:47.598Z,24.67
2017-04-26T12:35:19.943Z,24.74
2017-04-26T12:35:52.277Z,24.71
2017-04-26T12:36:24.574Z,24.71
2017-04-26T12:36:56.888Z,24.75
2017-04-26T12:37:29.224Z,24.63
2017-04-26T12:38:01.567Z,24.64
2017-04-26T12:38:33.872Z,24.74
2017-04-26T12:39:06.172Z,24.75
2017-04-26T12:39:38.794Z,24.75
2017-04-26T12:41:32.104Z,24.82
2017-04-26T12:42:05.022Z,24.89
2017-04-26T12:42:37.320Z,24.94
2017-04-26T12:43:10.430Z,25.01
2017-04-26T12:43:42.688Z,25.05
2017-04-26T12:44:14.925Z,25.2
2017-04-26T12:44:47.844Z,25.3
2017-04-26T12:45:21.040Z,25.39
2017-04-26T12:45:56.019Z,25.41
2017-04-26T12:46:28.542Z,25.59
2017-04-26T12:47:00.800Z,25.54
2017-04-26T12:47:33.052Z,25.75
2017-04-26T12:48:06.074Z,25.75
2017-04-26T12:48:38.329Z,25.85
2017-04-26T12:49:10.573Z,25.99
2017-04-26T12:49:42.924Z,26.01
2017-04-26T12:50:16.015Z,26.06
2017-04-26T12:50:48.288Z,26.17
2017-04-26T12:51:20.547Z,26.23
2017-04-26T12:51:52.834Z,26.17
2017-04-26T12:52:25.090Z,26.23
2017-04-26T12:52:57.333Z,26.24
2017-04-26T12:53:30.558Z,26.23
2017-04-26T12:54:02.857Z,26.41
2017-04-26T12:54:35.119Z,26.5
2017-04-26T12:55:07.386Z,26.59
2017-04-26T12:55:39.636Z,26.74
2017-04-26T12:56:11.892Z,26.78
2017-04-26T12:56:44.272Z,26.86
2017-04-26T12:57:17.525Z,27.04
2017-04-26T12:57:49.780Z,27.11
2017-04-26T12:58:22.035Z,27.24
2017-04-26T12:58:54.301Z,27.31
2017-04-26T12:59:26.649Z,27.49
2017-04-26T12:59:58.893Z,27.53
2017-04-26T13:00:31.169Z,27.57
2017-04-26T13:01:03.436Z,27.64
2017-04-26T13:01:35.695Z,27.72
2017-04-26T13:02:08.534Z,27.79
2017-04-26T13:02:40.833Z,27.9
2017-04-26T13:03:13.149Z,28.02
2017-04-26T13:03:45.455Z,27.99
2017-04-26T13:04:17.769Z,27.99
2017-04-26T13:04:50.074Z,28.21
2017-04-26T13:05:22.382Z,28.2
2017-04-26T13:05:54.680Z,28.36
2017-04-26T13:06:26.996Z,28.48
2017-04-26T13:06:59.308Z,28.73
2017-04-26T13:07:31.646Z,28.75
2017-04-26T13:08:03.976Z,28.79
2017-04-26T13:08:36.318Z,28.82
2017-04-26T13:09:08.663Z,28.92
2017-04-26T13:09:41.044Z,29.02
2017-04-26T13:10:13.612Z,29.1
2017-04-26T13:10:45.914Z,29.01
2017-04-26T13:11:18.248Z,29.08
2017-04-26T13:11:50.599Z,29.21
2017-04-26T13:12:22.911Z,29.23
2017-04-26T13:12:55.229Z,29.33
2017-04-26T13:13:27.548Z,29.45
2017-04-26T13:13:59.868Z,29.54
2017-04-26T13:14:32.176Z,29.63
2017-04-26T13:15:04.478Z,29.69
2017-04-26T13:15:36.800Z,29.79
2017-04-26T13:16:09.107Z,29.82
2017-04-26T13:16:41.447Z,29.84
2017-04-26T13:17:13.784Z,29.79
2017-04-26T13:17:46.108Z,29.72
2017-04-26T13:18:18.447Z,29.72
2017-04-26T13:18:50.753Z,29.91
2017-04-26T13:19:23.083Z,30.06
2017-04-26T13:19:55.401Z,30.09
2017-04-26T13:20:27.735Z,30.21
2017-04-26T13:21:00.059Z,30.29
2017-04-26T13:21:32.390Z,30.44
2017-04-26T13:22:04.692Z,30.57
2017-04-26T13:22:37.034Z,30.62
2017-04-26T13:24:28.578Z,30.91
2017-04-26T13:25:00.903Z,30.89
2017-04-26T13:25:33.227Z,31.04
2017-04-26T13:26:05.554Z,31.1
2017-04-26T13:26:39.129Z,31.01
2017-04-26T13:27:13.001Z,30.93
2017-04-26T13:27:45.310Z,30.81
2017-04-26T13:28:17.628Z,30.73
2017-04-26T13:28:49.940Z,30.67
2017-04-26T13:29:22.232Z,30.56
2017-04-26T13:29:54.542Z,30.37
2017-04-26T13:30:26.844Z,30.18
2017-04-26T13:30:59.148Z,30.13
2017-04-26T13:31:31.453Z,30.09
2017-04-26T13:32:03.771Z,30.19
2017-04-26T13:32:36.085Z,30.34
2017-04-26T13:33:08.412Z,30.56
2017-04-26T13:33:40.954Z,30.64
2017-04-26T13:34:13.250Z,30.81
2017-04-26T13:34:45.616Z,30.86
2017-04-26T13:35:17.915Z,30.93
2017-04-26T13:35:50.213Z,31
2017-04-26T13:36:22.520Z,31.15
2017-04-26T13:36:54.885Z,31.16
2017-04-26T13:37:27.222Z,31.25
2017-04-26T13:37:59.534Z,31.22
2017-04-26T13:38:31.849Z,31.36
2017-04-26T13:40:23.568Z,31.52
2017-04-26T13:40:55.883Z,31.56
2017-04-26T13:41:28.199Z,31.71
2017-04-26T13:42:00.519Z,31.74
2017-04-26T13:42:32.849Z,31.71
2017-04-26T13:43:05.115Z,31.82
2017-04-26T13:43:37.924Z,31.95
2017-04-26T13:44:10.171Z,31.95
2017-04-26T13:44:43.048Z,31.98
2017-04-26T13:45:15.319Z,32.12
2017-04-26T13:45:47.588Z,32.2
2017-04-26T13:46:19.853Z,32.19
2017-04-26T13:46:52.123Z,32.15
2017-04-26T13:47:25.122Z,32.23
2017-04-26T13:47:57.392Z,32.28
2017-04-26T13:48:29.666Z,32.27
2017-04-26T13:49:01.936Z,32.35
2017-04-26T13:49:34.213Z,32.47
2017-04-26T13:50:06.501Z,32.45
2017-04-26T13:50:39.507Z,32.5
2017-04-26T13:51:11.743Z,32.59
2017-04-26T13:51:44.919Z,32.62
2017-04-26T13:52:17.185Z,32.71
2017-04-26T13:52:49.504Z,32.72
2017-04-26T13:53:21.838Z,32.79
2017-04-26T13:53:54.143Z,32.72
2017-04-26T13:54:26.490Z,32.76
2017-04-26T13:54:58.862Z,32.79
2017-04-26T13:55:31.168Z,32.9
2017-04-26T13:56:03.503Z,32.87
2017-04-26T13:56:35.810Z,33.01
2017-04-26T13:57:08.133Z,33.05
2017-04-26T13:57:40.452Z,33.05
2017-04-26T13:58:12.774Z,32.94
2017-04-26T13:58:45.109Z,33.03
2017-04-26T13:59:17.425Z,33.11
2017-04-26T13:59:49.749Z,33.11
2017-04-26T14:00:22.077Z,33.21
2017-04-26T14:00:54.395Z,33.17
2017-04-26T14:01:26.698Z,33.17
2017-04-26T14:01:59.050Z,33.26
2017-04-26T14:02:31.379Z,33.28
2017-04-26T14:03:03.643Z,33.29
2017-04-26T14:03:35.918Z,33.43
2017-04-26T14:04:08.202Z,33.37
2017-04-26T14:04:40.507Z,33.31
2017-04-26T14:05:12.766Z,33.46
2017-04-26T14:05:45.589Z,33.4
2017-04-26T14:06:18.390Z,33.46
2017-04-26T14:06:51.569Z,33.5
2017-04-26T14:07:23.895Z,33.53
2017-04-26T14:07:57.110Z,33.55
2017-04-26T14:08:29.374Z,33.55
2017-04-26T14:09:01.625Z,33.58
2017-04-26T14:09:33.921Z,33.58
2017-04-26T14:10:07.632Z,33.58
2017-04-26T14:10:39.941Z,33.62
2017-04-26T14:11:13.091Z,33.63
2017-04-26T14:11:46.098Z,33.58
2017-04-26T14:12:18.382Z,33.59
2017-04-26T14:12:50.740Z,33.62
2017-04-26T14:13:22.996Z,33.68
2017-04-26T14:13:55.272Z,33.65
2017-04-26T14:14:27.533Z,33.68
2017-04-26T14:15:00.496Z,33.71
2017-04-26T14:15:32.746Z,33.71
2017-04-26T14:16:05.015Z,33.73
2017-04-26T14:16:38.033Z,33.73
2017-04-26T14:17:10.292Z,33.74
2017-04-26T14:17:42.541Z,33.75
2017-04-26T14:18:14.816Z,33.75
2017-04-26T14:18:47.086Z,33.75
2017-04-26T14:19:19.354Z,33.81
2017-04-26T14:19:51.623Z,33.77
2017-04-26T14:20:24.600Z,33.75
2017-04-26T14:20:57.584Z,33.81
2017-04-26T14:21:29.947Z,33.81
2017-04-26T14:22:02.228Z,33.78
2017-04-26T14:22:34.538Z,33.81
2017-04-26T14:23:06.801Z,33.87
2017-04-26T14:23:39.051Z,33.83
2017-04-26T14:24:12.757Z,33.87
2017-04-26T14:24:48.695Z,33.77
2017-04-26T14:25:20.965Z,33.8
2017-04-26T14:25:54.625Z,33.77
2017-04-26T14:26:27.645Z,33.78
2017-04-26T14:26:59.919Z,33.85
2017-04-26T14:27:32.199Z,33.8
2017-04-26T14:28:05.165Z,33.81
2017-04-26T14:28:37.417Z,33.84
2017-04-26T14:29:11.108Z,33.78
2017-04-26T14:29:44.635Z,33.81
2017-04-26T14:30:16.899Z,33.83
2017-04-26T14:30:49.911Z,33.84
2017-04-26T14:31:23.110Z,33.78
2017-04-26T14:31:55.400Z,33.81
2017-04-26T14:32:28.499Z,33.83
2017-04-26T14:33:00.813Z,33.8
2017-04-26T14:33:33.124Z,33.8
2017-04-26T14:34:05.437Z,33.87
2017-04-26T14:34:37.757Z,33.85
2017-04-26T14:35:10.085Z,33.8
2017-04-26T14:35:42.452Z,33.85
2017-04-26T14:36:14.775Z,33.9
2017-04-26T14:36:47.077Z,33.81
2017-04-26T14:37:19.392Z,33.85
2017-04-26T14:37:51.693Z,33.78
2017-04-26T14:38:23.996Z,33.83
2017-04-26T14:38:56.304Z,33.92
2017-04-26T14:39:28.614Z,33.77
2017-04-26T14:40:00.961Z,33.83
2017-04-26T14:40:33.269Z,33.83
2017-04-26T14:41:05.580Z,33.81
2017-04-26T14:41:37.893Z,33.81
2017-04-26T14:42:10.216Z,33.77
2017-04-26T14:42:42.515Z,33.83